Acacia Lake, Texas
Current Conditions -  °F | °C
As of 8:53 PM on Monday 20 Oct 2014 (Local Time) from KBRO Reporting Station
Scattered Clouds Scattered Clouds  
Wind Chill: 77°   Ceiling: Unl
Heat Index: 79°   Visibility: 10mi
Dew Point: 69°   Wind: 3mph
Humidity: 76%   Direction: 60°ENE
Pressure: 29.93"   Gusts: NA
Location:  26.0002°N, 97.5729°W
Report Text: KBRO 210153Z 06003KT 10SM SCT065 25/21 A2993 RMK AO2 SLP132 T02500206
Loading
Personal Weather Stations






























Interactive Weather Map
Tropical Storm Tracking
New forecast layout! Learn more

10-Day Weather Forecast

Advertisements
Track Severe Weather on mobile